createdAt,value
2024-04-22T00:02:29.310Z,86.98
2024-04-22T00:07:31.098Z,86.84
2024-04-22T00:12:32.973Z,86.40
2024-04-22T00:17:35.513Z,86.00
2024-04-22T00:22:37.451Z,85.77
2024-04-22T00:27:39.200Z,85.76
2024-04-22T00:32:41.059Z,86.04
2024-04-22T00:37:42.995Z,86.13
2024-04-22T00:42:48.315Z,86.03
2024-04-22T00:47:50.611Z,85.42
2024-04-22T00:52:53.435Z,85.04
2024-04-22T00:57:58.397Z,85.71
2024-04-22T01:03:00.108Z,85.53
2024-04-22T01:08:02.487Z,85.55
2024-04-22T01:13:04.976Z,85.80
2024-04-22T01:18:07.029Z,86.07
2024-04-22T01:23:08.668Z,86.35
2024-04-22T01:28:10.468Z,87.16
2024-04-22T01:33:12.395Z,87.25
2024-04-22T01:38:14.116Z,87.37
2024-04-22T01:43:15.907Z,87.53
2024-04-22T01:48:17.751Z,87.56
2024-04-22T01:53:19.414Z,86.81
2024-04-22T01:58:21.183Z,86.30
2024-04-22T02:03:23.170Z,86.29
2024-04-22T02:08:24.884Z,86.57
2024-04-22T02:13:26.664Z,86.54
2024-04-22T02:18:28.654Z,86.66
2024-04-22T02:23:30.548Z,86.40
2024-04-22T02:28:32.322Z,86.25
2024-04-22T02:33:34.172Z,85.70
2024-04-22T02:38:36.010Z,85.82
2024-04-22T02:43:37.803Z,86.03
2024-04-22T02:48:39.697Z,86.47
2024-04-22T02:53:41.569Z,86.49
2024-04-22T02:58:46.340Z,86.30
2024-04-22T03:03:48.159Z,86.16
2024-04-22T03:08:51.631Z,86.34
2024-04-22T03:13:53.504Z,86.08
2024-04-22T03:18:55.256Z,86.45
2024-04-22T03:23:56.997Z,86.12
2024-04-22T03:28:58.793Z,85.97
2024-04-22T03:34:00.880Z,86.01
2024-04-22T03:39:02.549Z,85.49
2024-04-22T03:44:04.436Z,85.87
2024-04-22T03:49:24.988Z,85.47
2024-04-22T03:54:26.673Z,85.40
2024-04-22T03:59:28.516Z,84.86
2024-04-22T04:04:30.379Z,84.66
2024-04-22T04:09:32.271Z,84.68
2024-04-22T04:14:34.032Z,84.90
2024-04-22T04:19:35.950Z,84.81
2024-04-22T04:24:37.823Z,84.67
2024-04-22T04:29:39.571Z,84.58
2024-04-22T04:34:43.581Z,84.23
2024-04-22T04:39:45.332Z,84.34
2024-04-22T04:44:47.021Z,84.63
2024-04-22T04:49:48.961Z,84.70
2024-04-22T04:54:53.141Z,84.38
2024-04-22T04:59:55.220Z,83.68
2024-04-22T05:04:56.963Z,83.78
2024-04-22T05:09:58.725Z,83.35
2024-04-22T05:15:01.612Z,82.65
2024-04-22T05:20:03.630Z,82.42
2024-04-22T05:25:05.479Z,82.97
2024-04-22T05:30:07.596Z,83.14
2024-04-22T05:35:28.180Z,81.94
2024-04-22T05:40:30.641Z,81.94
2024-04-22T05:45:33.901Z,81.68
2024-04-22T05:50:35.667Z,80.17
2024-04-22T05:55:37.468Z,79.82
2024-04-22T06:00:39.328Z,80.59
2024-04-22T06:05:41.290Z,79.73
2024-04-22T06:10:47.191Z,78.96
2024-04-22T06:15:49.090Z,78.30
2024-04-22T06:20:50.888Z,77.72
2024-04-22T06:25:52.663Z,78.62
2024-04-22T06:30:54.381Z,77.83
2024-04-22T06:35:56.946Z,77.36
2024-04-22T06:40:58.654Z,75.29
2024-04-22T06:46:00.443Z,75.83
2024-04-22T06:51:02.210Z,74.90
2024-04-22T06:56:04.211Z,74.87
2024-04-22T07:01:05.864Z,73.56
2024-04-22T07:06:11.218Z,74.86
2024-04-22T07:11:12.981Z,72.48
2024-04-22T07:16:15.224Z,71.33
2024-04-22T07:21:17.182Z,71.52
2024-04-22T07:26:19.011Z,71.87
2024-04-22T07:31:21.080Z,69.27
2024-04-22T07:36:32.120Z,67.82
2024-04-22T07:41:34.229Z,67.14
2024-04-22T07:46:36.266Z,66.23
2024-04-22T07:51:38.868Z,64.87
2024-04-22T07:56:41.012Z,66.37
2024-04-22T08:01:43.094Z,65.30
2024-04-22T08:06:45.671Z,64.60
2024-04-22T08:11:47.486Z,64.50
2024-04-22T08:16:49.334Z,63.81
2024-04-22T08:21:51.208Z,63.01
2024-04-22T08:26:57.149Z,65.21
2024-04-22T08:31:58.874Z,63.41
2024-04-22T08:37:00.634Z,65.15
2024-04-22T08:42:10.787Z,63.32
2024-04-22T08:47:12.514Z,62.85
2024-04-22T08:52:16.453Z,62.89
2024-04-22T08:57:18.726Z,62.76
2024-04-22T09:02:21.766Z,62.51
2024-04-22T09:07:23.531Z,59.40
2024-04-22T09:12:25.561Z,61.28
2024-04-22T09:17:27.916Z,61.47
2024-04-22T09:22:31.398Z,59.89
2024-04-22T09:27:33.473Z,60.47
2024-04-22T09:32:36.783Z,61.29
2024-04-22T09:37:39.942Z,63.01
2024-04-22T09:42:43.504Z,58.86
2024-04-22T09:47:47.650Z,60.88
2024-04-22T09:52:51.043Z,62.28
2024-04-22T09:58:01.795Z,60.48
2024-04-22T10:03:06.923Z,60.00
2024-04-22T10:08:09.062Z,60.00
2024-04-22T10:13:12.400Z,59.63
2024-04-22T10:18:16.618Z,59.37
2024-04-22T10:23:18.551Z,59.74
2024-04-22T10:28:20.461Z,61.58
2024-04-22T10:33:22.204Z,61.75
2024-04-22T10:38:23.902Z,58.21
2024-04-22T10:43:25.799Z,59.27
2024-04-22T10:48:28.092Z,60.36
2024-04-22T10:53:29.913Z,59.38
2024-04-22T10:58:31.663Z,58.98
2024-04-22T11:03:33.662Z,60.16
2024-04-22T11:08:36.682Z,60.43
2024-04-22T11:13:39.092Z,57.39
2024-04-22T11:18:40.913Z,57.36
2024-04-22T11:23:43.238Z,57.90
2024-04-22T11:28:46.702Z,57.35
2024-04-22T11:33:48.586Z,60.07
2024-04-22T11:38:51.594Z,56.76
2024-04-22T11:43:54.499Z,57.18
2024-04-22T11:48:56.223Z,57.08
2024-04-22T11:53:58.198Z,56.12
2024-04-22T11:59:00.782Z,56.40
2024-04-22T12:04:02.945Z,56.96
2024-04-22T12:09:06.726Z,57.22
2024-04-22T12:14:09.986Z,55.12
2024-04-22T12:19:11.613Z,54.30
2024-04-22T12:24:13.372Z,53.61
2024-04-22T12:29:15.117Z,53.29
2024-04-22T12:34:17.127Z,53.42
2024-04-22T12:39:20.692Z,55.70
2024-04-22T12:44:22.425Z,57.08
2024-04-22T12:49:42.921Z,57.13
2024-04-22T12:54:44.733Z,54.72
2024-04-22T12:59:46.493Z,56.77
2024-04-22T13:04:48.236Z,56.77
2024-04-22T13:09:49.999Z,53.46
2024-04-22T13:14:53.618Z,52.26
2024-04-22T13:19:55.421Z,55.21
2024-04-22T13:24:57.307Z,55.46
2024-04-22T13:30:03.047Z,56.35
2024-04-22T13:35:05.456Z,54.15
2024-04-22T13:40:08.961Z,54.79
2024-04-22T13:45:10.669Z,53.18
2024-04-22T13:50:12.590Z,54.82
2024-04-22T13:55:14.703Z,56.64
2024-04-22T14:00:16.663Z,55.71
2024-04-22T14:05:18.589Z,55.61
2024-04-22T14:10:20.433Z,56.75
2024-04-22T14:15:27.649Z,55.71
2024-04-22T14:20:39.081Z,54.23
2024-04-22T14:25:40.834Z,53.29
2024-04-22T14:30:42.626Z,56.10
2024-04-22T14:35:44.340Z,55.82
2024-04-22T14:40:46.123Z,55.82
2024-04-22T14:45:47.979Z,56.68
2024-04-22T14:50:53.371Z,56.11
2024-04-22T14:55:55.036Z,55.75
2024-04-22T15:00:56.861Z,56.69
2024-04-22T15:05:58.668Z,56.64
2024-04-22T15:11:03.999Z,58.47
2024-04-22T15:16:08.040Z,56.38
2024-04-22T15:21:09.961Z,58.68
2024-04-22T15:26:11.907Z,60.18
2024-04-22T15:31:13.640Z,57.29
2024-04-22T15:36:17.382Z,57.65
2024-04-22T15:41:19.164Z,56.39
2024-04-22T15:46:20.946Z,55.13
2024-04-22T15:51:23.882Z,58.03
2024-04-22T15:56:25.660Z,57.77
2024-04-22T16:01:27.499Z,59.10
2024-04-22T16:06:29.240Z,59.80
2024-04-22T16:11:32.975Z,59.10
2024-04-22T16:16:36.572Z,59.14
2024-04-22T16:21:38.386Z,59.82
2024-04-22T16:26:40.137Z,59.10
2024-04-22T16:31:42.510Z,59.64
2024-04-22T16:36:45.312Z,61.78
2024-04-22T16:41:47.064Z,60.15
2024-04-22T16:46:48.817Z,60.59
2024-04-22T16:51:50.608Z,62.11
2024-04-22T16:56:52.235Z,62.12
2024-04-22T17:01:53.986Z,64.31
2024-04-22T17:06:55.936Z,64.34
2024-04-22T17:11:57.753Z,65.85
2024-04-22T17:17:01.748Z,65.53
2024-04-22T17:22:05.184Z,65.84
2024-04-22T17:27:06.952Z,68.56
2024-04-22T17:32:08.781Z,70.72
2024-04-22T17:37:12.484Z,69.48
2024-04-22T17:42:14.427Z,70.63
2024-04-22T17:47:16.214Z,71.79
2024-04-22T17:52:17.993Z,73.41
2024-04-22T17:57:19.742Z,74.16
2024-04-22T18:02:21.540Z,70.41
2024-04-22T18:07:23.387Z,66.45
2024-04-22T18:12:25.102Z,69.40
2024-04-22T18:17:27.424Z,65.88
2024-04-22T18:22:32.370Z,68.41
2024-04-22T18:27:40.169Z,69.18
2024-04-22T18:32:43.490Z,69.39
2024-04-22T18:37:45.276Z,68.28
2024-04-22T18:42:47.011Z,65.17
2024-04-22T18:47:48.854Z,65.57
2024-04-22T18:52:50.776Z,65.36
2024-04-22T18:57:52.735Z,68.25
2024-04-22T19:02:55.185Z,64.98
2024-04-22T19:07:57.032Z,64.52
2024-04-22T19:12:58.994Z,65.32
2024-04-22T19:18:00.929Z,66.41
2024-04-22T19:23:02.884Z,66.06
2024-04-22T19:28:04.924Z,67.99
2024-04-22T19:33:07.663Z,64.43
2024-04-22T19:38:09.414Z,65.06
2024-04-22T19:43:11.141Z,66.46
2024-04-22T19:48:13.226Z,65.84
2024-04-22T19:53:15.208Z,66.30
2024-04-22T19:58:17.052Z,70.91
2024-04-22T20:03:18.776Z,74.28
2024-04-22T20:08:21.441Z,75.28
2024-04-22T20:13:23.261Z,75.99
2024-04-22T20:18:40.538Z,76.09
2024-04-22T20:23:42.286Z,75.95
2024-04-22T20:28:44.086Z,76.58
2024-04-22T20:33:46.280Z,75.52
2024-04-22T20:38:48.125Z,73.56
2024-04-22T20:43:49.912Z,76.47
2024-04-22T20:48:51.751Z,77.53
2024-04-22T20:53:53.473Z,74.17
2024-04-22T20:58:56.441Z,73.41
2024-04-22T21:03:58.250Z,75.13
2024-04-22T21:09:04.088Z,76.95
2024-04-22T21:14:06.079Z,73.52
2024-04-22T21:19:15.064Z,74.96
2024-04-22T21:24:21.896Z,77.82
2024-04-22T21:29:23.788Z,78.68
2024-04-22T21:34:25.722Z,78.52
2024-04-22T21:39:27.679Z,78.51
2024-04-22T21:44:30.161Z,79.64
2024-04-22T21:49:32.076Z,80.17
2024-04-22T21:54:33.759Z,80.62
2024-04-22T22:00:13.143Z,79.87
2024-04-22T22:05:52.673Z,76.53
2024-04-22T22:16:15.930Z,80.37
2024-04-22T22:21:17.826Z,81.05
2024-04-22T22:26:19.521Z,81.56
2024-04-22T22:31:21.314Z,81.79
2024-04-22T22:36:23.137Z,81.85
2024-04-22T22:41:24.792Z,81.82
2024-04-22T22:46:26.463Z,82.35
2024-04-22T22:51:28.137Z,82.51
2024-04-22T22:56:29.826Z,82.62
2024-04-22T23:01:31.517Z,82.73
2024-04-22T23:06:33.442Z,82.75
2024-04-22T23:11:35.163Z,81.55
2024-04-22T23:16:37.370Z,81.41
2024-04-22T23:21:39.067Z,81.19
2024-04-22T23:26:52.089Z,82.16
2024-04-22T23:31:53.827Z,82.55
2024-04-22T23:36:55.600Z,82.70
2024-04-22T23:41:57.288Z,82.92
2024-04-22T23:46:59.236Z,83.09
2024-04-22T23:52:01.097Z,83.20
2024-04-22T23:57:03.984Z,82.98
